Glen Hope, PA (16645)

6:48 AM EDT on August 29, 2015 (GMT -0400)
The Garden | | Change Station
CLOSE
Current Station
Personal Weather Station
Location: Houtzdale, PA
Elevation: 1578 ft
Nearby Weather Stations

Elev 1578 ft 40.79 °N, 78.37 °W | Updated 5 seconds ago

Partly Cloudy
Partly Cloudy
46.2 °F
Feels Like 46 °F
N
0.0
Wind Variable Wind from SSW
Gusts 0.0 mph

Today
High -- | Low -- °F
--% Chance of Precip.
Yesterday
High -- | Low -- °F
Precip. -- in
6:37 AM 7:51 PM
Full, 100% visible
Pressure 30.21 in
Visibility 1.2 miles
Clouds Overcast 100 ft
Windchill 46 °F
Dew Point 46 °F
Humidity 97%
Rainfall 0.00 in
Snow Depth Not available.
UV 0.0 out of 12
Pollen 9.60 out of 12
Air Quality Not available.
Flu Activity Not available.
SPECI KFIG 291046Z AUTO 02004KT 1 1/4SM BR OVC001 10/09 A3021 RMK AO2 T01000089
Pressure 30.21 in
Visibility 1.2 miles
Clouds Overcast 100 ft
Windchill 46 °F
Dew Point 46 °F
Humidity 97%
Rainfall 0.00 in
Snow Depth Not available.
UV 0.0 out of 12
Pollen 9.60 out of 12
Air Quality Not available.
Flu Activity Not available.
SPECI KFIG 291046Z AUTO 02004KT 1 1/4SM BR OVC001 10/09 A3021 RMK AO2 T01000089

10-Day Weather Forecast

×

Almanac

Astronomy

Aug. 29, 2015 Rise Set
Actual Time
Civil Twilight
Nautical Twilight
Astronomical Twilight
Moon
Length of Visible Light
Length of Day
Tomorrow will be .
, % of the Moon is Illuminated

Today's Extremes

State Highs State Lows

Community

WunderPhotos

Upload Photos

1,850,633 photos uploaded!

WunderBlogs® & News

Nearby

Air Quality

  Air Quality AQ Index Pollutant
Not available.

Snow Depth

Station Depth Elevation

Earthquake Activity

City Distance Mag. Time & Date
Minimum magnitude displayed is 2.5.

Coastal Water Temperatures

Place Temperature

Stations

Nearby Weather Stations

Station Location Temp. Windchill Dew Point Humidity Wind Precip. Elev Updated Type